sensor_id;sensor_type;location;lat;lon;timestamp;pressure;altitude;pressure_sealevel;temperature;humidity
11888;BME280;6003;42.756;23.130;2023-04-07T00:01:34;152206.66;;;-0.80;91.28
11888;BME280;6003;42.756;23.130;2023-04-07T00:04:01;152193.56;;;-0.85;91.93
11888;BME280;6003;42.756;23.130;2023-04-07T00:06:27;152176.56;;;-0.92;92.30
11888;BME280;6003;42.756;23.130;2023-04-07T00:08:54;152183.06;;;-0.89;92.84
11888;BME280;6003;42.756;23.130;2023-04-07T00:11:21;152184.41;;;-0.89;92.69
11888;BME280;6003;42.756;23.130;2023-04-07T00:13:48;152172.59;;;-0.94;92.51
11888;BME280;6003;42.756;23.130;2023-04-07T00:16:15;152175.19;;;-0.93;93.06
11888;BME280;6003;42.756;23.130;2023-04-07T00:18:43;152197.47;;;-0.84;92.40
11888;BME280;6003;42.756;23.130;2023-04-07T00:21:10;152219.72;;;-0.75;92.24
11888;BME280;6003;42.756;23.130;2023-04-07T00:23:37;152239.38;;;-0.68;91.82
11888;BME280;6003;42.756;23.130;2023-04-07T00:26:04;152240.66;;;-0.67;91.25
11888;BME280;6003;42.756;23.130;2023-04-07T00:28:31;152255.06;;;-0.61;91.08
11888;BME280;6003;42.756;23.130;2023-04-07T00:30:57;152287.84;;;-0.49;90.36
11888;BME280;6003;42.756;23.130;2023-04-07T00:33:24;152277.34;;;-0.53;90.88
11888;BME280;6003;42.756;23.130;2023-04-07T00:35:52;152282.59;;;-0.51;90.50
11888;BME280;6003;42.756;23.130;2023-04-07T00:38:22;152268.19;;;-0.56;90.39
11888;BME280;6003;42.756;23.130;2023-04-07T00:40:48;152298.28;;;-0.44;90.50
11888;BME280;6003;42.756;23.130;2023-04-07T00:43:15;152290.44;;;-0.48;90.18
11888;BME280;6003;42.756;23.130;2023-04-07T00:45:44;152287.84;;;-0.49;89.74
11888;BME280;6003;42.756;23.130;2023-04-07T00:48:10;152282.59;;;-0.51;90.48
11888;BME280;6003;42.756;23.130;2023-04-07T00:50:37;152272.09;;;-0.55;90.80
11888;BME280;6003;42.756;23.130;2023-04-07T00:53:05;152287.84;;;-0.49;90.04
11888;BME280;6003;42.756;23.130;2023-04-07T00:55:33;152312.72;;;-0.39;90.35
11888;BME280;6003;42.756;23.130;2023-04-07T00:57:59;152327.13;;;-0.33;89.48
11888;BME280;6003;42.756;23.130;2023-04-07T01:00:26;152332.38;;;-0.31;89.62
11888;BME280;6003;42.756;23.130;2023-04-07T01:02:57;152331.03;;;-0.32;89.55
11888;BME280;6003;42.756;23.130;2023-04-07T01:05:29;152363.78;;;-0.19;88.39
11888;BME280;6003;42.756;23.130;2023-04-07T01:08:11;152371.66;;;-0.16;88.16
11888;BME280;6003;42.756;23.130;2023-04-07T01:10:43;152386.06;;;-0.10;87.19
11888;BME280;6003;42.756;23.130;2023-04-07T01:13:19;152435.84;;;0.09;86.07
11888;BME280;6003;42.756;23.130;2023-04-07T01:15:51;152451.56;;;0.15;85.70
11888;BME280;6003;42.756;23.130;2023-04-07T01:18:23;152439.75;;;0.11;86.53
11888;BME280;6003;42.756;23.130;2023-04-07T01:20:55;152447.63;;;0.14;85.40
11888;BME280;6003;42.756;23.130;2023-04-07T01:23:38;152462.03;;;0.19;85.82
11888;BME280;6003;42.756;23.130;2023-04-07T01:26:20;152460.72;;;0.19;85.46
11888;BME280;6003;42.756;23.130;2023-04-07T01:29:06;152450.28;;;0.15;84.54
11888;BME280;6003;42.756;23.130;2023-04-07T01:31:40;152443.72;;;0.12;84.86
11888;BME280;6003;42.756;23.130;2023-04-07T01:34:09;152441.06;;;0.11;84.64
11888;BME280;6003;42.756;23.130;2023-04-07T01:36:36;152426.66;;;0.06;84.53
11888;BME280;6003;42.756;23.130;2023-04-07T01:39:04;152414.88;;;0.01;84.90
11888;BME280;6003;42.756;23.130;2023-04-07T01:41:32;152418.78;;;0.03;84.28
11888;BME280;6003;42.756;23.130;2023-04-07T01:44:00;152416.19;;;0.02;84.26
11888;BME280;6003;42.756;23.130;2023-04-07T01:46:28;152410.94;;;-0.01;83.56
11888;BME280;6003;42.756;23.130;2023-04-07T01:48:57;152417.50;;;0.02;83.61
11888;BME280;6003;42.756;23.130;2023-04-07T01:51:24;152410.94;;;-0.01;84.64
11888;BME280;6003;42.756;23.130;2023-04-07T01:53:52;152405.72;;;-0.03;84.31
11888;BME280;6003;42.756;23.130;2023-04-07T01:56:19;152426.66;;;0.06;84.01
11888;BME280;6003;42.756;23.130;2023-04-07T01:58:46;152431.91;;;0.08;83.96
11888;BME280;6003;42.756;23.130;2023-04-07T02:01:13;152466.00;;;0.21;83.75
11888;BME280;6003;42.756;23.130;2023-04-07T02:03:45;152466.00;;;0.21;83.88
11888;BME280;6003;42.756;23.130;2023-04-07T02:06:17;152497.44;;;0.33;82.60
11888;BME280;6003;42.756;23.130;2023-04-07T02:08:48;152502.69;;;0.35;82.14
11888;BME280;6003;42.756;23.130;2023-04-07T02:11:19;152535.41;;;0.48;81.57
11888;BME280;6003;42.756;23.130;2023-04-07T02:13:46;152549.84;;;0.54;82.40
11888;BME280;6003;42.756;23.130;2023-04-07T02:16:14;152578.69;;;0.65;82.06
11888;BME280;6003;42.756;23.130;2023-04-07T02:18:43;152583.94;;;0.67;81.52
11888;BME280;6003;42.756;23.130;2023-04-07T02:21:11;152586.56;;;0.68;81.61
11888;BME280;6003;42.756;23.130;2023-04-07T02:23:41;152591.81;;;0.70;81.99
11888;BME280;6003;42.756;23.130;2023-04-07T02:26:08;152602.28;;;0.74;81.01
11888;BME280;6003;42.756;23.130;2023-04-07T02:28:36;152635.06;;;0.87;80.89
11888;BME280;6003;42.756;23.130;2023-04-07T02:31:02;152636.38;;;0.87;80.73
11888;BME280;6003;42.756;23.130;2023-04-07T02:33:29;152629.81;;;0.85;81.28
11888;BME280;6003;42.756;23.130;2023-04-07T02:35:56;152638.97;;;0.88;80.65
11888;BME280;6003;42.756;23.130;2023-04-07T02:38:23;152653.41;;;0.94;79.83
11888;BME280;6003;42.756;23.130;2023-04-07T02:40:51;152688.81;;;1.08;77.79
11888;BME280;6003;42.756;23.130;2023-04-07T02:43:18;152680.97;;;1.05;79.10
11888;BME280;6003;42.756;23.130;2023-04-07T02:45:45;152692.78;;;1.09;78.65
11888;BME280;6003;42.756;23.130;2023-04-07T02:48:12;152683.56;;;1.06;78.30
11888;BME280;6003;42.756;23.130;2023-04-07T02:50:39;152688.81;;;1.08;79.61
11888;BME280;6003;42.756;23.130;2023-04-07T02:53:07;152692.78;;;1.09;78.87
11888;BME280;6003;42.756;23.130;2023-04-07T02:55:34;152687.53;;;1.07;78.62
11888;BME280;6003;42.756;23.130;2023-04-07T02:58:02;152674.41;;;1.02;78.88
11888;BME280;6003;42.756;23.130;2023-04-07T03:00:29;152680.97;;;1.05;79.88
11888;BME280;6003;42.756;23.130;2023-04-07T03:02:56;152649.50;;;0.93;79.62
11888;BME280;6003;42.756;23.130;2023-04-07T03:05:23;152628.53;;;0.84;80.18
11888;BME280;6003;42.756;23.130;2023-04-07T03:07:49;152618.00;;;0.80;80.13
11888;BME280;6003;42.756;23.130;2023-04-07T03:10:16;152594.41;;;0.71;80.87
11888;BME280;6003;42.756;23.130;2023-04-07T03:12:43;152573.44;;;0.63;80.77
11888;BME280;6003;42.756;23.130;2023-04-07T03:15:11;152528.88;;;0.45;81.01
11888;BME280;6003;42.756;23.130;2023-04-07T03:17:38;152515.78;;;0.40;80.87
11888;BME280;6003;42.756;23.130;2023-04-07T03:20:07;152492.16;;;0.31;81.30
11888;BME280;6003;42.756;23.130;2023-04-07T03:22:34;152484.31;;;0.28;81.66
11888;BME280;6003;42.756;23.130;2023-04-07T03:25:00;152476.44;;;0.25;82.51
11888;BME280;6003;42.756;23.130;2023-04-07T03:27:27;152484.31;;;0.28;82.52
11888;BME280;6003;42.756;23.130;2023-04-07T03:29:54;152471.19;;;0.23;82.90
11888;BME280;6003;42.756;23.130;2023-04-07T03:32:22;152466.00;;;0.21;82.19
11888;BME280;6003;42.756;23.130;2023-04-07T03:34:49;152479.09;;;0.26;82.71
11888;BME280;6003;42.756;23.130;2023-04-07T03:37:16;152473.84;;;0.24;82.33
11888;BME280;6003;42.756;23.130;2023-04-07T03:39:43;152479.09;;;0.26;82.30
11888;BME280;6003;42.756;23.130;2023-04-07T03:42:10;152486.97;;;0.29;82.29
11888;BME280;6003;42.756;23.130;2023-04-07T03:44:36;152485.59;;;0.29;82.08
11888;BME280;6003;42.756;23.130;2023-04-07T03:47:03;152498.72;;;0.34;81.87
11888;BME280;6003;42.756;23.130;2023-04-07T03:49:31;152505.28;;;0.36;82.59
11888;BME280;6003;42.756;23.130;2023-04-07T03:51:58;152513.16;;;0.39;82.60
11888;BME280;6003;42.756;23.130;2023-04-07T03:54:25;152528.88;;;0.45;82.55
11888;BME280;6003;42.756;23.130;2023-04-07T03:56:52;152534.13;;;0.48;81.56
11888;BME280;6003;42.756;23.130;2023-04-07T03:59:19;152544.59;;;0.52;81.77
11888;BME280;6003;42.756;23.130;2023-04-07T04:01:45;152565.56;;;0.60;81.13
11888;BME280;6003;42.756;23.130;2023-04-07T04:04:12;152572.13;;;0.62;80.90
11888;BME280;6003;42.756;23.130;2023-04-07T04:06:40;152582.63;;;0.66;81.71
11888;BME280;6003;42.756;23.130;2023-04-07T04:09:07;152589.16;;;0.69;81.17
11888;BME280;6003;42.756;23.130;2023-04-07T04:11:34;152607.53;;;0.76;81.42
11888;BME280;6003;42.756;23.130;2023-04-07T04:14:01;152619.34;;;0.81;81.04
11888;BME280;6003;42.756;23.130;2023-04-07T04:16:28;152625.88;;;0.83;80.65
11888;BME280;6003;42.756;23.130;2023-04-07T04:18:56;152657.38;;;0.96;79.75
11888;BME280;6003;42.756;23.130;2023-04-07T04:21:24;152670.50;;;1.01;79.18
11888;BME280;6003;42.756;23.130;2023-04-07T04:23:53;152670.50;;;1.01;79.85
11888;BME280;6003;42.756;23.130;2023-04-07T04:26:20;152679.66;;;1.04;79.58
11888;BME280;6003;42.756;23.130;2023-04-07T04:28:50;152688.81;;;1.08;79.37
11888;BME280;6003;42.756;23.130;2023-04-07T04:31:17;152694.09;;;1.10;78.30
11888;BME280;6003;42.756;23.130;2023-04-07T04:33:44;152699.28;;;1.12;78.71
11888;BME280;6003;42.756;23.130;2023-04-07T04:36:10;152708.50;;;1.16;78.75
11888;BME280;6003;42.756;23.130;2023-04-07T04:38:37;152728.16;;;1.23;77.70
11888;BME280;6003;42.756;23.130;2023-04-07T04:41:06;152747.84;;;1.31;77.41
11888;BME280;6003;42.756;23.130;2023-04-07T04:43:33;152759.66;;;1.35;77.57
11888;BME280;6003;42.756;23.130;2023-04-07T04:45:59;152783.28;;;1.45;77.18
11888;BME280;6003;42.756;23.130;2023-04-07T04:48:26;152793.75;;;1.49;77.20
11888;BME280;6003;42.756;23.130;2023-04-07T04:50:53;152801.59;;;1.52;76.94
11888;BME280;6003;42.756;23.130;2023-04-07T04:53:20;152806.88;;;1.54;77.28
11888;BME280;6003;42.756;23.130;2023-04-07T04:55:46;152818.69;;;1.58;76.92
11888;BME280;6003;42.756;23.130;2023-04-07T04:58:17;152838.34;;;1.66;76.56
11888;BME280;6003;42.756;23.130;2023-04-07T05:00:44;152867.22;;;1.77;76.09
11888;BME280;6003;42.756;23.130;2023-04-07T05:03:11;152905.25;;;1.92;74.83
11888;BME280;6003;42.756;23.130;2023-04-07T05:05:38;152927.56;;;2.01;74.50
11888;BME280;6003;42.756;23.130;2023-04-07T05:08:05;152917.09;;;1.97;75.82
11888;BME280;6003;42.756;23.130;2023-04-07T05:10:32;152901.34;;;1.91;76.45
11888;BME280;6003;42.756;23.130;2023-04-07T05:12:58;152918.41;;;1.97;75.53
11888;BME280;6003;42.756;23.130;2023-04-07T05:15:27;152917.09;;;1.97;76.00
11888;BME280;6003;42.756;23.130;2023-04-07T05:17:53;152942.00;;;2.07;76.29
11888;BME280;6003;42.756;23.130;2023-04-07T05:20:20;152959.09;;;2.13;76.34
11888;BME280;6003;42.756;23.130;2023-04-07T05:22:47;152968.28;;;2.17;76.02
11888;BME280;6003;42.756;23.130;2023-04-07T05:25:14;152993.22;;;2.26;75.78
11888;BME280;6003;42.756;23.130;2023-04-07T05:27:41;153032.63;;;2.42;75.27
11888;BME280;6003;42.756;23.130;2023-04-07T05:30:08;153061.47;;;2.53;75.95
11888;BME280;6003;42.756;23.130;2023-04-07T05:32:37;153077.25;;;2.59;74.79
11888;BME280;6003;42.756;23.130;2023-04-07T05:35:04;153082.47;;;2.61;74.64
11888;BME280;6003;42.756;23.130;2023-04-07T05:37:31;153077.25;;;2.59;75.05
11888;BME280;6003;42.756;23.130;2023-04-07T05:39:58;153093.03;;;2.65;74.08
11888;BME280;6003;42.756;23.130;2023-04-07T05:42:25;153111.38;;;2.72;73.46
11888;BME280;6003;42.756;23.130;2023-04-07T05:44:52;153135.00;;;2.82;74.52
11888;BME280;6003;42.756;23.130;2023-04-07T05:47:18;153142.88;;;2.85;74.57
11888;BME280;6003;42.756;23.130;2023-04-07T05:49:46;153142.88;;;2.85;74.07
11888;BME280;6003;42.756;23.130;2023-04-07T05:52:13;153192.81;;;3.04;73.26
11888;BME280;6003;42.756;23.130;2023-04-07T05:54:40;153261.13;;;3.31;73.64
11888;BME280;6003;42.756;23.130;2023-04-07T05:57:07;153300.56;;;3.46;72.54
11888;BME280;6003;42.756;23.130;2023-04-07T06:02:57;153413.59;;;3.90;71.34
11888;BME280;6003;42.756;23.130;2023-04-07T06:05:25;153467.47;;;4.11;70.39
11888;BME280;6003;42.756;23.130;2023-04-07T06:07:52;153516.16;;;4.30;70.02
11888;BME280;6003;42.756;23.130;2023-04-07T06:10:19;153541.13;;;4.40;69.70
11888;BME280;6003;42.756;23.130;2023-04-07T06:12:47;153572.72;;;4.52;68.78
11888;BME280;6003;42.756;23.130;2023-04-07T06:15:13;153589.81;;;4.59;69.49
11888;BME280;6003;42.756;23.130;2023-04-07T06:17:40;153591.09;;;4.59;67.54
11888;BME280;6003;42.756;23.130;2023-04-07T06:20:08;153581.91;;;4.56;67.03
11888;BME280;6003;42.756;23.130;2023-04-07T06:22:38;153605.59;;;4.65;68.28
11888;BME280;6003;42.756;23.130;2023-04-07T06:25:05;153576.63;;;4.53;67.78
11888;BME280;6003;42.756;23.130;2023-04-07T06:27:32;153581.91;;;4.56;67.85
11888;BME280;6003;42.756;23.130;2023-04-07T06:29:59;153560.88;;;4.47;67.26
11888;BME280;6003;42.756;23.130;2023-04-07T06:32:26;153587.19;;;4.58;68.87
11888;BME280;6003;42.756;23.130;2023-04-07T06:34:53;153614.78;;;4.68;68.04
11888;BME280;6003;42.756;23.130;2023-04-07T06:37:20;153647.69;;;4.81;67.76
11888;BME280;6003;42.756;23.130;2023-04-07T06:39:50;153679.25;;;4.93;68.15
11888;BME280;6003;42.756;23.130;2023-04-07T06:42:17;153684.53;;;4.95;67.12
11888;BME280;6003;42.756;23.130;2023-04-07T06:44:44;153701.63;;;5.02;66.88
11888;BME280;6003;42.756;23.130;2023-04-07T06:47:11;153737.16;;;5.16;67.39
11888;BME280;6003;42.756;23.130;2023-04-07T06:49:37;153731.88;;;5.14;65.81
11888;BME280;6003;42.756;23.130;2023-04-07T06:52:04;153752.94;;;5.22;65.08
11888;BME280;6003;42.756;23.130;2023-04-07T06:54:31;153780.59;;;5.33;65.54
11888;BME280;6003;42.756;23.130;2023-04-07T06:56:59;153845.06;;;5.58;66.20
11888;BME280;6003;42.756;23.130;2023-04-07T06:59:27;153929.34;;;5.91;65.11
11888;BME280;6003;42.756;23.130;2023-04-07T07:01:53;154008.41;;;6.21;63.26
11888;BME280;6003;42.756;23.130;2023-04-07T07:04:20;154011.06;;;6.22;63.74
11888;BME280;6003;42.756;23.130;2023-04-07T07:06:47;154045.28;;;6.36;63.94
11888;BME280;6003;42.756;23.130;2023-04-07T07:09:14;154053.19;;;6.39;63.34
11888;BME280;6003;42.756;23.130;2023-04-07T07:11:41;154083.53;;;6.50;63.22
11888;BME280;6003;42.756;23.130;2023-04-07T07:14:09;154079.53;;;6.49;61.73
11888;BME280;6003;42.756;23.130;2023-04-07T07:16:36;154074.25;;;6.47;61.63
11888;BME280;6003;42.756;23.130;2023-04-07T07:19:03;154116.44;;;6.63;61.39
11888;BME280;6003;42.756;23.130;2023-04-07T07:21:29;154113.81;;;6.62;61.50
11888;BME280;6003;42.756;23.130;2023-04-07T07:23:57;154111.16;;;6.61;61.39
11888;BME280;6003;42.756;23.130;2023-04-07T07:26:23;154040.03;;;6.33;61.08
11888;BME280;6003;42.756;23.130;2023-04-07T07:28:50;153984.69;;;6.12;61.73
11888;BME280;6003;42.756;23.130;2023-04-07T07:31:18;153999.19;;;6.18;62.56
11888;BME280;6003;42.756;23.130;2023-04-07T07:33:45;153986.00;;;6.13;63.36
11888;BME280;6003;42.756;23.130;2023-04-07T07:36:14;153955.72;;;6.01;62.29
11888;BME280;6003;42.756;23.130;2023-04-07T07:38:41;153964.97;;;6.04;63.45
11888;BME280;6003;42.756;23.130;2023-04-07T07:41:08;153959.69;;;6.02;62.03
11888;BME280;6003;42.756;23.130;2023-04-07T07:43:34;153961.00;;;6.03;63.13
11888;BME280;6003;42.756;23.130;2023-04-07T07:46:02;153959.69;;;6.02;62.33
11888;BME280;6003;42.756;23.130;2023-04-07T07:48:30;153976.78;;;6.09;63.15
11888;BME280;6003;42.756;23.130;2023-04-07T07:50:58;154042.66;;;6.35;63.05
11888;BME280;6003;42.756;23.130;2023-04-07T07:53:24;154061.13;;;6.42;62.14
11888;BME280;6003;42.756;23.130;2023-04-07T07:55:51;154046.63;;;6.36;59.78
11888;BME280;6003;42.756;23.130;2023-04-07T07:58:20;154075.63;;;6.47;60.44
11888;BME280;6003;42.756;23.130;2023-04-07T08:00:47;154169.13;;;6.84;61.40
11888;BME280;6003;42.756;23.130;2023-04-07T08:03:15;154231.06;;;7.08;61.67
11888;BME280;6003;42.756;23.130;2023-04-07T08:05:46;154264.06;;;7.20;59.61
11888;BME280;6003;42.756;23.130;2023-04-07T08:08:13;154282.47;;;7.28;59.58
11888;BME280;6003;42.756;23.130;2023-04-07T08:10:40;154299.66;;;7.34;60.62
11888;BME280;6003;42.756;23.130;2023-04-07T08:13:07;154308.88;;;7.38;60.10
11888;BME280;6003;42.756;23.130;2023-04-07T08:15:34;154256.16;;;7.17;58.38
11888;BME280;6003;42.756;23.130;2023-04-07T08:18:01;154300.97;;;7.35;60.05
11888;BME280;6003;42.756;23.130;2023-04-07T08:20:30;154353.69;;;7.55;59.47
11888;BME280;6003;42.756;23.130;2023-04-07T08:22:59;154490.84;;;8.08;59.78
11888;BME280;6003;42.756;23.130;2023-04-07T08:25:27;154548.91;;;8.31;58.18
11888;BME280;6003;42.756;23.130;2023-04-07T08:27:54;154620.22;;;8.58;59.02
11888;BME280;6003;42.756;23.130;2023-04-07T08:30:21;154662.47;;;8.75;58.40
11888;BME280;6003;42.756;23.130;2023-04-07T08:32:48;154737.72;;;9.04;56.68
11888;BME280;6003;42.756;23.130;2023-04-07T08:35:15;154839.34;;;9.43;53.65
11888;BME280;6003;42.756;23.130;2023-04-07T08:37:42;154835.41;;;9.42;54.24
11888;BME280;6003;42.756;23.130;2023-04-07T08:40:11;154787.84;;;9.23;54.08
11888;BME280;6003;42.756;23.130;2023-04-07T08:42:40;154879.00;;;9.59;53.60
11888;BME280;6003;42.756;23.130;2023-04-07T08:45:08;154882.94;;;9.60;52.52
11888;BME280;6003;42.756;23.130;2023-04-07T08:47:36;154863.16;;;9.53;52.30
11888;BME280;6003;42.756;23.130;2023-04-07T08:50:05;154869.75;;;9.55;54.55
11888;BME280;6003;42.756;23.130;2023-04-07T08:52:34;154962.19;;;9.91;51.09
11888;BME280;6003;42.756;23.130;2023-04-07T08:55:05;155004.50;;;10.07;53.89
11888;BME280;6003;42.756;23.130;2023-04-07T08:57:34;155042.81;;;10.22;53.50
11888;BME280;6003;42.756;23.130;2023-04-07T09:00:03;155011.09;;;10.10;52.40
11888;BME280;6003;42.756;23.130;2023-04-07T09:02:32;154901.44;;;9.67;53.57
11888;BME280;6003;42.756;23.130;2023-04-07T09:04:59;154725.81;;;8.99;52.27
11888;BME280;6003;42.756;23.130;2023-04-07T09:07:26;154609.63;;;8.54;53.02
11888;BME280;6003;42.756;23.130;2023-04-07T09:09:54;154546.28;;;8.30;54.46
11888;BME280;6003;42.756;23.130;2023-04-07T09:12:21;154514.63;;;8.18;55.44
11888;BME280;6003;42.756;23.130;2023-04-07T09:14:49;154555.50;;;8.33;54.68
11888;BME280;6003;42.756;23.130;2023-04-07T09:17:16;154568.75;;;8.39;54.89
11888;BME280;6003;42.756;23.130;2023-04-07T09:19:43;154538.34;;;8.27;56.40
11888;BME280;6003;42.756;23.130;2023-04-07T09:22:10;154515.94;;;8.18;54.11
11888;BME280;6003;42.756;23.130;2023-04-07T09:24:39;154424.94;;;7.83;55.96
11888;BME280;6003;42.756;23.130;2023-04-07T09:27:10;154435.47;;;7.87;56.15
11888;BME280;6003;42.756;23.130;2023-04-07T09:29:38;154377.41;;;7.64;56.74
11888;BME280;6003;42.756;23.130;2023-04-07T09:32:06;154343.16;;;7.51;56.69
11888;BME280;6003;42.756;23.130;2023-04-07T09:34:35;154361.59;;;7.58;56.83
11888;BME280;6003;42.756;23.130;2023-04-07T09:37:02;154361.59;;;7.58;55.40
11888;BME280;6003;42.756;23.130;2023-04-07T09:39:30;154414.34;;;7.79;58.21
11888;BME280;6003;42.756;23.130;2023-04-07T09:41:57;154435.47;;;7.87;56.40
11888;BME280;6003;42.756;23.130;2023-04-07T09:44:25;154403.81;;;7.75;55.63
11888;BME280;6003;42.756;23.130;2023-04-07T09:46:53;154422.25;;;7.82;56.47
11888;BME280;6003;42.756;23.130;2023-04-07T09:49:22;154413.03;;;7.78;58.26
11888;BME280;6003;42.756;23.130;2023-04-07T09:51:54;154337.88;;;7.49;59.33
11888;BME280;6003;42.756;23.130;2023-04-07T09:54:34;154294.38;;;7.32;60.67
11888;BME280;6003;42.756;23.130;2023-04-07T09:57:03;154281.16;;;7.27;58.39
11888;BME280;6003;42.756;23.130;2023-04-07T09:59:31;154306.25;;;7.37;58.13
11888;BME280;6003;42.756;23.130;2023-04-07T10:01:59;154239.03;;;7.11;58.44
11888;BME280;6003;42.756;23.130;2023-04-07T10:04:28;154250.84;;;7.15;58.65
11888;BME280;6003;42.756;23.130;2023-04-07T10:06:56;154237.66;;;7.10;60.25
11888;BME280;6003;42.756;23.130;2023-04-07T10:09:25;154219.25;;;7.03;59.83
11888;BME280;6003;42.756;23.130;2023-04-07T10:12:01;154262.75;;;7.20;63.61
11888;BME280;6003;42.756;23.130;2023-04-07T10:14:30;154328.66;;;7.45;61.66
11888;BME280;6003;42.756;23.130;2023-04-07T10:16:59;154348.41;;;7.53;58.39
11888;BME280;6003;42.756;23.130;2023-04-07T10:19:31;154389.31;;;7.69;59.18
11888;BME280;6003;42.756;23.130;2023-04-07T10:21:58;154488.22;;;8.07;56.63
11888;BME280;6003;42.756;23.130;2023-04-07T10:24:41;154525.16;;;8.22;58.27
11888;BME280;6003;42.756;23.130;2023-04-07T10:27:15;154596.47;;;8.49;58.38
11888;BME280;6003;42.756;23.130;2023-04-07T10:29:45;154589.88;;;8.47;56.73
11888;BME280;6003;42.756;23.130;2023-04-07T10:32:14;154576.66;;;8.42;55.77
11888;BME280;6003;42.756;23.130;2023-04-07T10:34:58;154588.56;;;8.46;55.79
11888;BME280;6003;42.756;23.130;2023-04-07T10:37:26;154607.00;;;8.53;56.90
11888;BME280;6003;42.756;23.130;2023-04-07T10:40:27;154607.00;;;8.53;55.39
11888;BME280;6003;42.756;23.130;2023-04-07T10:42:54;154593.81;;;8.48;56.39
11888;BME280;6003;42.756;23.130;2023-04-07T10:45:56;154559.47;;;8.35;56.16
11888;BME280;6003;42.756;23.130;2023-04-07T10:48:25;154546.28;;;8.30;55.58
11888;BME280;6003;42.756;23.130;2023-04-07T10:51:17;154521.22;;;8.20;55.72
11888;BME280;6003;42.756;23.130;2023-04-07T10:54:17;154540.97;;;8.28;56.04
11888;BME280;6003;42.756;23.130;2023-04-07T10:57:08;154480.31;;;8.04;56.39
11888;BME280;6003;42.756;23.130;2023-04-07T10:59:37;154585.88;;;8.45;58.66
11888;BME280;6003;42.756;23.130;2023-04-07T11:02:36;154634.75;;;8.64;56.97
11888;BME280;6003;42.756;23.130;2023-04-07T11:05:03;154572.72;;;8.40;56.14
11888;BME280;6003;42.756;23.130;2023-04-07T11:07:46;154585.88;;;8.45;57.83
11888;BME280;6003;42.756;23.130;2023-04-07T11:10:14;154501.41;;;8.12;56.86
11888;BME280;6003;42.756;23.130;2023-04-07T11:12:43;154435.47;;;7.87;59.83
11888;BME280;6003;42.756;23.130;2023-04-07T11:15:18;154471.09;;;8.01;57.42
11888;BME280;6003;42.756;23.130;2023-04-07T11:17:46;154446.00;;;7.91;59.01
11888;BME280;6003;42.756;23.130;2023-04-07T11:20:13;154468.41;;;8.00;59.71
11888;BME280;6003;42.756;23.130;2023-04-07T11:22:40;154469.78;;;8.00;59.83
11888;BME280;6003;42.756;23.130;2023-04-07T11:25:20;154432.84;;;7.86;58.62
11888;BME280;6003;42.756;23.130;2023-04-07T11:27:52;154447.34;;;7.91;60.41
11888;BME280;6003;42.756;23.130;2023-04-07T11:30:19;154493.50;;;8.09;60.80
11888;BME280;6003;42.756;23.130;2023-04-07T11:32:50;154539.66;;;8.27;59.94
11888;BME280;6003;42.756;23.130;2023-04-07T11:35:17;154523.84;;;8.21;58.75
11888;BME280;6003;42.756;23.130;2023-04-07T11:37:43;154547.59;;;8.30;58.44
11888;BME280;6003;42.756;23.130;2023-04-07T11:40:10;154570.06;;;8.39;58.42
11888;BME280;6003;42.756;23.130;2023-04-07T11:42:42;154530.44;;;8.24;58.05
11888;BME280;6003;42.756;23.130;2023-04-07T11:45:15;154522.53;;;8.21;57.82
11888;BME280;6003;42.756;23.130;2023-04-07T11:47:42;154476.38;;;8.03;57.17
11888;BME280;6003;42.756;23.130;2023-04-07T11:50:09;154490.84;;;8.08;58.25
11888;BME280;6003;42.756;23.130;2023-04-07T11:52:40;154440.75;;;7.89;58.06
11888;BME280;6003;42.756;23.130;2023-04-07T11:55:16;154390.63;;;7.69;56.95
11888;BME280;6003;42.756;23.130;2023-04-07T11:57:45;154440.75;;;7.89;58.67
11888;BME280;6003;42.756;23.130;2023-04-07T12:00:13;154397.22;;;7.72;59.89
11888;BME280;6003;42.756;23.130;2023-04-07T12:02:40;154401.16;;;7.74;59.75
11888;BME280;6003;42.756;23.130;2023-04-07T12:05:08;154418.31;;;7.80;59.15
11888;BME280;6003;42.756;23.130;2023-04-07T12:07:35;154414.34;;;7.79;60.09
11888;BME280;6003;42.756;23.130;2023-04-07T12:10:18;154434.16;;;7.86;60.66
11888;BME280;6003;42.756;23.130;2023-04-07T12:12:47;154467.09;;;7.99;59.17
11888;BME280;6003;42.756;23.130;2023-04-07T12:15:14;154508.03;;;8.15;58.38
11888;BME280;6003;42.756;23.130;2023-04-07T12:17:44;154493.50;;;8.09;59.42
11888;BME280;6003;42.756;23.130;2023-04-07T12:20:12;154511.94;;;8.17;59.59
11888;BME280;6003;42.756;23.130;2023-04-07T12:22:39;154517.25;;;8.19;58.87
11888;BME280;6003;42.756;23.130;2023-04-07T12:25:07;154480.31;;;8.04;58.68
11888;BME280;6003;42.756;23.130;2023-04-07T12:27:34;154451.28;;;7.93;59.07
11888;BME280;6003;42.756;23.130;2023-04-07T12:30:02;154403.81;;;7.75;58.69
11888;BME280;6003;42.756;23.130;2023-04-07T12:32:29;154417.03;;;7.80;60.60
11888;BME280;6003;42.756;23.130;2023-04-07T12:34:57;154430.16;;;7.85;62.13
11888;BME280;6003;42.756;23.130;2023-04-07T12:37:24;154444.69;;;7.90;60.30
11888;BME280;6003;42.756;23.130;2023-04-07T12:39:50;154423.56;;;7.82;60.38
11888;BME280;6003;42.756;23.130;2023-04-07T12:42:17;154399.84;;;7.73;60.79
11888;BME280;6003;42.756;23.130;2023-04-07T12:44:44;154370.81;;;7.62;61.00
11888;BME280;6003;42.756;23.130;2023-04-07T12:47:12;154373.50;;;7.63;62.71
11888;BME280;6003;42.756;23.130;2023-04-07T12:49:40;154451.28;;;7.93;61.84
11888;BME280;6003;42.756;23.130;2023-04-07T12:52:07;154475.00;;;8.02;61.01
11888;BME280;6003;42.756;23.130;2023-04-07T12:54:34;154533.06;;;8.25;60.96
11888;BME280;6003;42.756;23.130;2023-04-07T12:57:00;154492.19;;;8.09;58.95
11888;BME280;6003;42.756;23.130;2023-04-07T12:59:28;154419.63;;;7.81;61.30
11888;BME280;6003;42.756;23.130;2023-04-07T13:01:55;154402.50;;;7.74;62.62
11888;BME280;6003;42.756;23.130;2023-04-07T13:04:23;154380.09;;;7.65;62.67
11888;BME280;6003;42.756;23.130;2023-04-07T13:06:51;154306.25;;;7.37;61.93
11888;BME280;6003;42.756;23.130;2023-04-07T13:09:18;154339.19;;;7.50;64.64
11888;BME280;6003;42.756;23.130;2023-04-07T13:11:44;154269.34;;;7.22;62.62